Time;durP1;ratioP1;P1;durP2;ratioP2;P2;SDS_P1;SDS_P2;PMS_P1;PMS_P2;Temp;Humidity;BMP_temperature;BMP_pressure;BME280_temperature;BME280_humidity;BME280_pressure;Samples;Min_cycle;Max_cycle;Signal;HPM_P1;HPM_P2
2022/12/25 00:00:38;;;;;;;22.42;5.80;;;;;;;8.51;100.00;101386.81;5092996;28;20020;-73
2022/12/25 00:03:03;;;;;;;24.05;6.40;;;;;;;8.56;100.00;101394.84;5093218;28;20082;-72
2022/12/25 00:05:28;;;;;;;21.85;5.75;;;;;;;8.57;100.00;101385.25;5093035;28;20024;-73
2022/12/25 00:07:54;;;;;;;25.85;6.50;;;;;;;8.58;100.00;101376.47;5092914;28;20027;-72
2022/12/25 00:10:19;;;;;;;23.17;6.28;;;;;;;8.58;100.00;101380.00;5092953;28;20101;-73
2022/12/25 00:12:45;;;;;;;26.60;5.70;;;;;;;8.60;100.00;101380.03;5092830;28;20059;-73
2022/12/25 00:15:10;;;;;;;20.33;5.43;;;;;;;8.61;100.00;101385.38;5074937;28;20427;-73
2022/12/25 00:17:35;;;;;;;21.15;5.50;;;;;;;8.62;100.00;101381.00;5092573;28;20035;-72
2022/12/25 00:20:01;;;;;;;21.92;5.57;;;;;;;8.57;100.00;101379.97;5074557;28;20024;-73
2022/12/25 00:22:26;;;;;;;19.83;5.40;;;;;;;8.60;100.00;101388.81;5092388;28;20094;-72
2022/12/25 00:24:51;;;;;;;25.38;5.95;;;;;;;8.61;100.00;101392.34;5092928;28;20024;-72
2022/12/25 00:27:17;;;;;;;21.67;5.70;;;;;;;8.61;100.00;101385.38;5074800;28;20032;-73
2022/12/25 00:29:42;;;;;;;16.38;5.72;;;;;;;8.63;100.00;101383.66;5092874;28;20028;-73
2022/12/25 00:32:08;;;;;;;26.33;5.80;;;;;;;8.65;100.00;101386.31;5092805;28;20028;-72
2022/12/25 00:34:34;;;;;;;18.80;5.82;;;;;;;8.66;100.00;101385.50;5092883;28;20069;-73
2022/12/25 00:36:59;;;;;;;19.33;5.90;;;;;;;8.68;100.00;101381.13;5092746;28;20024;-73
2022/12/25 00:39:25;;;;;;;20.05;6.18;;;;;;;8.68;100.00;101386.41;5092626;28;20095;-72
2022/12/25 00:44:35;;;;;;;18.58;5.72;;;;;;;8.68;100.00;101386.41;5092587;28;20500;-73
2022/12/25 00:47:00;;;;;;;20.67;6.13;;;;;;;8.68;100.00;101376.75;5092543;28;20025;-73
2022/12/25 00:49:26;;;;;;;20.08;6.20;;;;;;;8.68;100.00;101373.22;5092595;28;20393;-72
2022/12/25 00:51:52;;;;;;;18.40;5.60;;;;;;;8.68;100.00;101373.22;5092730;28;20096;-73
2022/12/25 00:54:18;;;;;;;24.42;6.18;;;;;;;8.66;100.00;101378.47;5092420;28;20044;-73
2022/12/25 00:56:43;;;;;;;17.75;5.70;;;;;;;8.70;100.00;101376.81;5092534;28;20024;-72
2022/12/25 00:59:09;;;;;;;21.63;6.05;;;;;;;8.69;100.00;101367.09;5092464;28;20032;-72
2022/12/25 01:01:35;;;;;;;25.35;5.90;;;;;;;8.70;100.00;101375.06;5092403;28;20024;-72
2022/12/25 01:04:00;;;;;;;19.77;5.90;;;;;;;8.71;100.00;101371.56;5092560;28;20030;-72
2022/12/25 01:06:26;;;;;;;19.50;5.78;;;;;;;8.70;100.00;101366.28;5092478;28;20016;-72
2022/12/25 01:11:37;;;;;;;15.70;5.80;;;;;;;8.73;100.00;101355.81;5050908;28;20190;-72
2022/12/25 01:14:03;;;;;;;19.05;6.07;;;;;;;8.71;100.00;101355.78;5092043;28;20111;-73
2022/12/25 01:16:28;;;;;;;21.02;6.50;;;;;;;8.71;100.00;101352.25;5074169;28;20599;-73
2022/12/25 01:18:54;;;;;;;20.42;5.78;;;;;;;8.73;100.00;101355.81;5092472;28;20047;-73
2022/12/25 01:21:21;;;;;;;19.67;5.80;;;;;;;8.72;100.00;101344.38;5092632;28;20031;-73
2022/12/25 01:23:47;;;;;;;17.48;5.60;;;;;;;8.74;100.00;101350.59;5092377;28;20107;-72
2022/12/25 01:26:14;;;;;;;14.82;5.47;;;;;;;8.75;100.00;101356.75;5092340;28;20381;-73
2022/12/25 01:28:40;;;;;;;17.10;5.80;;;;;;;8.75;100.00;101362.91;5092013;28;20043;-73
2022/12/25 01:31:09;;;;;;;20.58;5.93;;;;;;;8.76;100.00;101363.78;5092331;28;20028;-73
2022/12/25 01:33:35;;;;;;;22.45;6.00;;;;;;;8.78;100.00;101375.28;5095383;28;20095;-72
2022/12/25 01:36:00;;;;;;;15.40;5.57;;;;;;;8.80;100.00;101376.19;5095961;28;20103;-72
2022/12/25 01:38:25;;;;;;;14.00;5.25;;;;;;;8.80;100.00;101372.69;5095921;28;20107;-73
2022/12/25 01:40:51;;;;;;;21.10;5.55;;;;;;;8.82;100.00;101385.03;5077683;28;20458;-71
2022/12/25 01:43:16;;;;;;;19.10;5.63;;;;;;;8.82;100.00;101384.13;5095543;28;20123;-71
2022/12/25 01:45:43;;;;;;;22.92;5.72;;;;;;;8.82;100.00;101378.88;5095866;28;20016;-72
2022/12/25 01:48:13;;;;;;;19.20;5.45;;;;;;;8.81;100.00;101379.72;5095736;28;20020;-70
2022/12/25 01:50:44;;;;;;;23.75;5.38;;;;;;;8.82;100.00;101386.78;5095758;28;20062;-70
2022/12/25 01:53:11;;;;;;;16.27;5.63;;;;;;;8.84;100.00;101387.72;5095461;28;20128;-72
2022/12/25 01:55:37;;;;;;;17.17;5.47;;;;;;;8.84;100.00;101393.00;5095330;28;20389;-71
2022/12/25 01:58:03;;;;;;;17.92;5.75;;;;;;;8.84;100.00;101385.09;5095361;28;20097;-71
2022/12/25 02:00:29;;;;;;;15.13;5.47;;;;;;;8.84;100.00;101398.25;5095548;28;20027;-70
2022/12/25 02:02:55;;;;;;;12.45;5.20;;;;;;;8.86;100.00;101401.81;5095233;28;20115;-72
2022/12/25 02:05:32;;;;;;;13.23;5.47;;;;;;;8.85;100.00;101400.03;5095356;28;20024;-72
2022/12/25 02:08:03;;;;;;;16.52;5.35;;;;;;;8.85;100.00;101400.03;5095309;28;20465;-72
2022/12/25 02:10:28;;;;;;;14.35;5.60;;;;;;;8.86;100.00;101404.44;5095226;28;20024;-72
2022/12/25 02:12:54;;;;;;;16.88;5.38;;;;;;;8.85;100.00;101397.41;5095184;28;20089;-72
2022/12/25 02:15:25;;;;;;;14.07;5.35;;;;;;;8.83;100.00;101400.00;5077140;28;20028;-72
2022/12/25 02:18:05;;;;;;;16.30;5.70;;;;;;;8.85;100.00;101398.28;5095111;28;20020;-72
2022/12/25 02:20:43;;;;;;;17.15;5.38;;;;;;;8.87;100.00;101406.25;5095387;28;20023;-73
2022/12/25 02:23:20;;;;;;;22.38;5.85;;;;;;;8.87;100.00;101414.16;5095051;28;20063;-73
2022/12/25 02:26:07;;;;;;;16.35;5.10;;;;;;;8.88;100.00;101411.56;5095223;28;20118;-73
2022/12/25 02:28:53;;;;;;;18.30;5.25;;;;;;;8.91;100.00;101411.66;5094961;28;20040;-73
2022/12/25 02:31:36;;;;;;;17.50;5.18;;;;;;;8.90;100.00;101409.84;5094859;28;20135;-73
2022/12/25 02:34:24;;;;;;;22.35;5.75;;;;;;;8.89;100.00;101402.78;5094627;28;20044;-73
2022/12/25 02:37:23;;;;;;;19.58;5.15;;;;;;;8.91;100.00;101408.13;5094954;28;20020;-72
2022/12/25 02:40:01;;;;;;;13.82;5.55;;;;;;;8.84;100.00;101393.88;5094867;28;20028;-73
2022/12/25 03:07:59;;;;;;;14.20;4.78;;;;;;;8.90;100.00;101353.59;5094468;28;20079;-72
2022/12/25 03:13:18;;;;;;;14.00;5.10;;;;;;;8.85;100.00;101337.69;5094311;28;20051;-73
2022/12/25 03:18:30;;;;;;;11.45;4.72;;;;;;;8.82;100.00;101308.59;5094193;28;20069;-73
2022/12/25 03:31:10;;;;;;;12.13;4.70;;;;;;;8.73;100.00;101296.09;5093799;28;20500;-73
2022/12/25 03:32:26;;;;;;;10.65;4.68;;;;;;;8.71;100.00;101295.16;5078677;28;20048;-73
2022/12/25 04:36:20;;;;;;;7.80;3.60;;;;;;;8.51;100.00;101286.75;5054441;28;20032;-72
2022/12/25 04:38:45;;;;;;;13.02;3.75;;;;;;;8.46;100.00;101284.84;5092699;28;20443;-72
2022/12/25 04:41:12;;;;;;;7.70;3.65;;;;;;;8.47;100.00;101291.91;5092839;28;20032;-72
2022/12/25 04:43:37;;;;;;;10.30;3.65;;;;;;;8.46;100.00;101298.03;5092689;28;20107;-73
2022/12/25 04:46:04;;;;;;;14.13;3.83;;;;;;;8.44;100.00;101302.38;5092647;28;20508;-72
2022/12/25 04:48:33;;;;;;;12.40;3.75;;;;;;;8.43;100.00;101295.28;5092744;28;20071;-73
2022/12/25 04:51:12;;;;;;;10.18;3.80;;;;;;;8.40;100.00;101289.97;5092608;28;20017;-73
2022/12/25 04:53:37;;;;;;;10.52;3.65;;;;;;;8.41;100.00;101281.22;5092547;28;20093;-72
2022/12/25 04:56:02;;;;;;;15.07;4.20;;;;;;;8.38;100.00;101271.47;5092774;28;20428;-73
2022/12/25 04:58:29;;;;;;;8.73;3.65;;;;;;;8.39;100.00;101278.53;5092521;28;20469;-72
2022/12/25 05:00:58;;;;;;;7.60;3.30;;;;;;;8.37;100.00;101274.97;5092623;28;20032;-72
2022/12/25 05:03:24;;;;;;;9.30;3.22;;;;;;;8.37;100.00;101274.09;5092554;28;20027;-73
2022/12/25 05:05:49;;;;;;;10.75;3.22;;;;;;;8.39;100.00;101262.72;5092518;28;20032;-72
2022/12/25 05:08:15;;;;;;;8.10;3.60;;;;;;;8.39;100.00;101267.97;5095394;28;20106;-73
2022/12/25 05:10:40;;;;;;;10.68;3.42;;;;;;;8.39;100.00;101283.78;5096450;28;20465;-72
2022/12/25 05:13:05;;;;;;;9.90;3.42;;;;;;;8.40;100.00;101275.06;5096118;28;20474;-72
2022/12/25 05:15:31;;;;;;;8.82;3.55;;;;;;;8.40;100.00;101274.16;5096363;28;20024;-72
2022/12/25 05:17:56;;;;;;;8.52;3.50;;;;;;;8.39;100.00;101267.97;5096088;28;20388;-72
2022/12/25 05:20:22;;;;;;;9.73;3.28;;;;;;;8.39;100.00;101273.25;5096265;28;20025;-72
2022/12/25 05:22:47;;;;;;;8.98;3.38;;;;;;;8.39;100.00;101267.09;5077987;28;20550;-72
2022/12/25 05:25:12;;;;;;;9.93;3.58;;;;;;;8.40;100.00;101267.16;5096016;28;20020;-72
2022/12/25 05:27:38;;;;;;;9.48;3.28;;;;;;;8.44;100.00;101268.13;5096159;28;20024;-73
2022/12/25 05:30:03;;;;;;;11.10;3.50;;;;;;;8.46;100.00;101262.03;5096058;28;20562;-72
2022/12/25 05:32:29;;;;;;;12.55;3.50;;;;;;;8.47;100.00;101252.38;5095973;28;20035;-72
2022/12/25 05:34:55;;;;;;;10.68;3.53;;;;;;;8.48;100.00;101233.13;5095826;28;20465;-72
2022/12/25 05:37:20;;;;;;;9.40;3.22;;;;;;;8.56;100.00;101231.56;5095942;28;20016;-72
2022/12/25 05:39:45;;;;;;;9.02;3.28;;;;;;;8.58;100.00;101235.13;5077853;28;20500;-72
2022/12/25 05:42:11;;;;;;;7.32;3.00;;;;;;;8.59;100.00;101234.28;5095907;28;20086;-73
2022/12/25 05:44:36;;;;;;;8.68;3.25;;;;;;;8.63;100.00;101235.25;5095451;28;20082;-72
2022/12/25 05:47:01;;;;;;;7.90;2.80;;;;;;;8.63;100.00;101232.59;5095654;28;20016;-73
2022/12/25 05:49:27;;;;;;;9.43;3.00;;;;;;;8.66;100.00;101243.22;5095710;28;20032;-72
2022/12/25 05:51:52;;;;;;;7.90;2.97;;;;;;;8.67;100.00;101239.72;5095763;28;20393;-73
2022/12/25 05:54:18;;;;;;;7.72;2.78;;;;;;;8.70;100.00;101243.34;5095470;28;20044;-72
2022/12/25 05:56:43;;;;;;;6.47;2.70;;;;;;;8.71;100.00;101245.13;5095520;28;20047;-73
2022/12/25 05:59:08;;;;;;;14.63;4.15;;;;;;;8.73;100.00;101238.13;5095497;28;20047;-72
2022/12/25 06:01:34;;;;;;;6.43;2.80;;;;;;;8.74;100.00;101242.56;5095498;28;20100;-72
2022/12/25 06:03:59;;;;;;;5.78;2.90;;;;;;;8.76;100.00;101232.94;5095371;28;20032;-72
2022/12/25 06:06:25;;;;;;;10.15;3.10;;;;;;;8.75;100.00;101228.53;5077282;28;20473;-73
2022/12/25 06:08:52;;;;;;;5.50;2.80;;;;;;;8.77;100.00;101229.44;5095037;28;20027;-73
2022/12/25 06:11:18;;;;;;;8.98;3.20;;;;;;;8.74;100.00;101224.13;5095546;28;20028;-72
2022/12/25 06:13:43;;;;;;;5.85;3.15;;;;;;;8.76;100.00;101229.41;5095129;28;20081;-73
2022/12/25 06:16:10;;;;;;;6.15;3.17;;;;;;;8.76;100.00;101225.03;5095088;28;20024;-72
2022/12/25 06:18:38;;;;;;;7.43;2.80;;;;;;;8.77;100.00;101228.56;5075662;28;20061;-72
2022/12/25 06:21:12;;;;;;;8.23;3.08;;;;;;;8.78;100.00;101217.19;5095164;28;20088;-73
2022/12/25 06:23:38;;;;;;;9.15;3.00;;;;;;;8.81;100.00;101205.81;5095345;28;20039;-72
2022/12/25 06:26:05;;;;;;;7.60;2.90;;;;;;;8.80;100.00;101202.28;5094978;28;20032;-72
2022/12/25 06:28:31;;;;;;;8.05;2.90;;;;;;;8.82;100.00;101197.03;5095023;28;20039;-72
2022/12/25 06:30:56;;;;;;;8.55;3.38;;;;;;;8.83;100.00;101202.38;5094790;28;20020;-72
2022/12/25 06:33:21;;;;;;;7.43;2.80;;;;;;;8.84;100.00;101204.16;5094783;28;20032;-72
2022/12/25 06:35:47;;;;;;;5.55;2.90;;;;;;;8.84;100.00;101201.50;5094716;28;20121;-72
2022/12/25 06:38:12;;;;;;;9.40;2.90;;;;;;;8.86;100.00;101198.91;5076585;28;20037;-72
2022/12/25 06:40:38;;;;;;;8.88;2.88;;;;;;;8.88;100.00;101186.66;5094754;28;20107;-73
2022/12/25 06:43:03;;;;;;;6.63;2.70;;;;;;;8.91;100.00;101178.84;5094434;28;20416;-72
2022/12/25 06:45:28;;;;;;;8.55;2.88;;;;;;;8.86;100.00;101165.53;5094433;28;20029;-71
2022/12/25 06:47:54;;;;;;;8.50;2.88;;;;;;;8.89;100.00;101172.63;5076169;28;20366;-72
2022/12/25 06:50:19;;;;;;;7.30;3.08;;;;;;;8.83;100.00;101161.97;5094585;28;20040;-72
2022/12/25 06:52:44;;;;;;;10.10;3.10;;;;;;;8.85;100.00;101163.75;5059486;28;20024;-72
2022/12/25 06:55:10;;;;;;;10.07;3.17;;;;;;;8.86;100.00;101154.97;5094530;28;20044;-72
2022/12/25 06:57:35;;;;;;;8.55;2.90;;;;;;;8.85;100.00;101144.41;5094226;28;20493;-72
2022/12/25 07:00:01;;;;;;;7.97;3.00;;;;;;;8.86;100.00;101138.28;5094202;28;20069;-72
2022/12/25 07:02:26;;;;;;;8.88;2.95;;;;;;;8.86;100.00;101133.03;5094275;28;20523;-72
2022/12/25 07:04:52;;;;;;;7.18;3.00;;;;;;;8.84;100.00;101140.00;5094290;28;20040;-72
2022/12/25 07:07:18;;;;;;;7.93;3.20;;;;;;;8.77;100.00;101126.69;5094213;28;20055;-72
2022/12/25 07:09:44;;;;;;;8.90;3.20;;;;;;;8.82;100.00;101134.69;5094396;28;20020;-73
2022/12/25 07:12:12;;;;;;;9.25;3.15;;;;;;;8.84;100.00;101135.63;5093958;28;20022;-72
2022/12/25 07:14:38;;;;;;;6.68;3.20;;;;;;;8.79;100.00;101137.28;5075672;28;20485;-72
2022/12/25 07:17:03;;;;;;;12.15;3.58;;;;;;;8.84;100.00;101156.72;5093833;28;20031;-72
2022/12/25 07:19:28;;;;;;;10.07;3.30;;;;;;;8.84;100.00;101153.19;5093965;28;20474;-72
2022/12/25 07:21:54;;;;;;;8.13;3.58;;;;;;;8.82;100.00;101152.25;5093909;28;20032;-72
2022/12/25 07:24:21;;;;;;;7.60;3.38;;;;;;;8.81;100.00;101163.66;5075810;28;20055;-72
2022/12/25 07:26:47;;;;;;;9.73;3.40;;;;;;;8.83;100.00;101173.38;5093765;28;20047;-72
2022/12/25 07:29:12;;;;;;;8.05;3.25;;;;;;;8.84;100.00;101167.25;5093516;28;20020;-72
2022/12/25 07:31:38;;;;;;;7.35;3.30;;;;;;;8.88;100.00;101169.09;5093327;28;20485;-71
2022/12/25 07:34:03;;;;;;;9.20;3.40;;;;;;;8.87;100.00;101183.16;5094080;28;20036;-72
2022/12/25 07:36:29;;;;;;;7.95;3.33;;;;;;;8.87;100.00;101185.78;5093777;28;20016;-72
2022/12/25 07:38:55;;;;;;;8.88;3.40;;;;;;;8.88;100.00;101184.03;5093395;28;20047;-72
2022/12/25 07:41:20;;;;;;;9.23;3.35;;;;;;;8.87;100.00;101185.78;5093492;28;20141;-72
2022/12/25 07:43:49;;;;;;;8.40;3.17;;;;;;;8.88;100.00;101171.75;5093182;28;20107;-71
2022/12/25 07:46:15;;;;;;;8.98;3.28;;;;;;;8.88;100.00;101142.75;5093383;28;20397;-72
2022/12/25 07:48:40;;;;;;;10.43;3.22;;;;;;;8.90;100.00;101133.13;5093382;28;20044;-70
2022/12/25 07:51:10;;;;;;;7.70;3.20;;;;;;;8.91;100.00;101141.94;5093579;28;20108;-71
2022/12/25 07:53:37;;;;;;;7.82;3.78;;;;;;;8.92;100.00;101149.00;5093099;28;20051;-71
2022/12/25 07:56:10;;;;;;;8.00;3.35;;;;;;;8.92;100.00;101154.25;5093331;28;20107;-72
2022/12/25 07:58:35;;;;;;;9.38;3.22;;;;;;;8.91;100.00;101169.19;5093076;28;20093;-73
2022/12/25 08:01:04;;;;;;;7.50;3.28;;;;;;;8.89;100.00;101181.41;5093359;28;20474;-72
2022/12/25 08:03:30;;;;;;;6.93;3.15;;;;;;;8.89;100.00;101194.59;5093196;28;20477;-72
2022/12/25 08:06:02;;;;;;;11.80;3.45;;;;;;;8.88;100.00;101198.09;5093389;28;20032;-72
2022/12/25 08:08:29;;;;;;;9.43;3.60;;;;;;;8.88;100.00;101202.47;5093317;28;20059;-72
2022/12/25 08:10:54;;;;;;;8.95;4.82;;;;;;;8.88;100.00;101189.31;5075052;28;20020;-72
2022/12/25 08:13:20;;;;;;;8.00;3.97;;;;;;;8.93;100.00;101203.47;5092711;28;20051;-72
2022/12/25 08:15:45;;;;;;;10.85;3.80;;;;;;;8.91;100.00;101206.09;5075007;28;20036;-73
2022/12/25 08:18:10;;;;;;;9.75;5.15;;;;;;;8.95;100.00;101210.56;5092934;28;20039;-73
2022/12/25 08:20:36;;;;;;;8.45;3.40;;;;;;;8.92;100.00;101228.94;5074864;28;20449;-72
2022/12/25 08:23:02;;;;;;;7.43;3.50;;;;;;;8.91;100.00;101240.34;5074964;28;20032;-72
2022/12/25 08:25:28;;;;;;;7.40;3.60;;;;;;;8.85;100.00;101228.75;5092831;28;20028;-72
2022/12/25 08:27:53;;;;;;;7.68;3.45;;;;;;;8.91;100.00;101214.00;5092681;28;20470;-72
2022/12/25 08:30:18;;;;;;;8.57;3.30;;;;;;;8.92;100.00;101207.84;5092892;28;20032;-72
2022/12/25 08:32:44;;;;;;;10.75;3.80;;;;;;;8.95;100.00;101210.56;5092840;28;20459;-72
2022/12/25 08:35:09;;;;;;;6.78;4.30;;;;;;;8.99;100.00;101208.88;5092883;28;20523;-71
2022/12/25 08:37:35;;;;;;;7.32;3.63;;;;;;;8.97;100.00;101205.31;5074797;28;20444;-72
2022/12/25 08:40:00;;;;;;;10.48;3.55;;;;;;;8.95;100.00;101209.66;5092779;28;20027;-72
2022/12/25 08:42:25;;;;;;;9.82;3.65;;;;;;;8.94;100.00;101211.41;5094254;28;20468;-72
2022/12/25 08:44:51;;;;;;;7.35;3.53;;;;;;;8.94;100.00;101219.31;5096944;28;20032;-73
2022/12/25 08:47:16;;;;;;;9.82;3.70;;;;;;;8.91;100.00;101231.53;5096909;28;20477;-73
2022/12/25 08:49:41;;;;;;;6.55;3.63;;;;;;;8.90;100.00;101224.47;5096877;28;20107;-72
2022/12/25 08:52:07;;;;;;;9.38;4.10;;;;;;;8.87;100.00;101225.31;5089352;28;20111;-72
2022/12/25 08:54:35;;;;;;;10.07;4.13;;;;;;;8.84;100.00;101222.59;5076269;28;20425;-72
2022/12/25 08:57:01;;;;;;;11.57;4.50;;;;;;;8.82;100.00;101221.66;5076193;28;20098;-70
2022/12/25 08:59:26;;;;;;;7.07;3.42;;;;;;;8.82;100.00;101204.94;5076392;28;20421;-71
2022/12/25 09:01:52;;;;;;;8.73;4.15;;;;;;;8.84;100.00;101213.78;5076432;28;20035;-71
2022/12/25 09:04:17;;;;;;;9.73;4.28;;;;;;;8.83;100.00;101201.47;5076437;28;20029;-71
2022/12/25 09:06:43;;;;;;;8.48;3.58;;;;;;;8.83;100.00;101205.00;5076346;28;20029;-71
2022/12/25 09:09:08;;;;;;;9.05;4.40;;;;;;;8.81;100.00;101188.25;5076371;28;20033;-71
2022/12/25 09:11:33;;;;;;;9.23;4.10;;;;;;;8.80;100.00;101191.75;5075991;28;20393;-71
2022/12/25 09:13:59;;;;;;;7.93;3.67;;;;;;;8.83;100.00;101180.41;5075963;28;20021;-71
2022/12/25 09:16:24;;;;;;;13.00;4.35;;;;;;;8.81;100.00;101185.63;5075946;28;20078;-70
2022/12/25 09:18:50;;;;;;;10.13;4.32;;;;;;;8.76;100.00;101198.69;5075999;28;20039;-70
2022/12/25 09:21:16;;;;;;;10.45;4.40;;;;;;;8.74;100.00;101218.84;5076204;28;20032;-72
2022/12/25 09:23:41;;;;;;;6.60;3.75;;;;;;;8.71;100.00;101205.59;5075885;28;20024;-71
2022/12/25 09:26:11;;;;;;;10.68;4.22;;;;;;;8.72;100.00;101206.47;5075765;28;20028;-72
2022/12/25 09:28:36;;;;;;;8.35;3.83;;;;;;;8.71;100.00;101218.78;5076008;28;20044;-72
2022/12/25 09:31:03;;;;;;;8.88;4.00;;;;;;;8.69;100.00;101209.03;5057838;28;20025;-71
2022/12/25 09:33:28;;;;;;;9.13;4.00;;;;;;;8.70;100.00;101201.19;5058069;28;20020;-70
2022/12/25 09:36:05;;;;;;;8.20;3.83;;;;;;;8.72;100.00;101198.56;5075705;28;20041;-71
2022/12/25 09:38:31;;;;;;;9.57;3.95;;;;;;;8.72;100.00;101206.47;5075502;28;20032;-71
2022/12/25 09:41:00;;;;;;;8.35;3.90;;;;;;;8.70;100.00;101174.84;5075784;28;20021;-70
2022/12/25 09:43:29;;;;;;;9.18;3.70;;;;;;;8.73;100.00;101161.72;5075413;28;20512;-71
2022/12/25 09:45:56;;;;;;;5.07;3.35;;;;;;;8.76;100.00;101169.69;5075517;28;20029;-70
2022/12/25 09:48:22;;;;;;;10.68;3.90;;;;;;;8.80;100.00;101194.38;5057677;28;20508;-71
2022/12/25 09:51:01;;;;;;;7.13;3.90;;;;;;;8.76;100.00;101174.97;5075464;28;20028;-70
2022/12/25 09:53:32;;;;;;;9.80;3.85;;;;;;;8.79;100.00;101179.44;5074941;28;20044;-71
2022/12/25 09:56:03;;;;;;;12.97;4.07;;;;;;;8.80;100.00;101170.66;5075394;28;20390;-70
2022/12/25 09:58:31;;;;;;;10.75;3.70;;;;;;;8.77;100.00;101163.56;5075268;28;20024;-71
2022/12/25 10:01:18;;;;;;;7.90;3.90;;;;;;;8.78;100.00;101159.22;5075225;28;20028;-70
2022/12/25 10:03:59;;;;;;;8.85;4.10;;;;;;;8.81;100.00;101169.81;5074973;28;20035;-71
2022/12/25 10:06:37;;;;;;;7.95;3.90;;;;;;;8.85;100.00;101154.97;5075367;28;20052;-71
2022/12/25 10:09:23;;;;;;;8.43;4.05;;;;;;;8.85;100.00;101153.22;5075055;28;20029;-70
2022/12/25 10:12:06;;;;;;;7.35;4.20;;;;;;;8.87;100.00;101156.78;5075395;28;20027;-70
2022/12/25 10:14:46;;;;;;;6.15;3.85;;;;;;;8.87;100.00;101142.72;5075160;28;20032;-70
2022/12/25 10:17:40;;;;;;;9.05;4.00;;;;;;;8.88;100.00;101137.47;5075031;28;20028;-70
2022/12/25 10:20:21;;;;;;;7.30;3.70;;;;;;;8.91;100.00;101142.84;5074859;28;20029;-70
2022/12/25 10:23:32;;;;;;;9.95;4.10;;;;;;;8.94;100.00;101142.00;5074833;28;20025;-70
2022/12/25 10:25:58;;;;;;;8.73;4.00;;;;;;;8.97;100.00;101147.34;5050757;28;20126;-70
2022/12/25 10:28:41;;;;;;;8.20;4.20;;;;;;;8.99;100.00;101133.34;5074638;28;20056;-71
2022/12/25 10:31:19;;;;;;;9.27;4.90;;;;;;;9.02;100.00;101128.13;5074914;28;20046;-71
2022/12/25 10:33:45;;;;;;;10.25;4.25;;;;;;;9.04;100.00;101138.72;5074784;28;20033;-70
2022/12/25 10:36:12;;;;;;;9.07;4.25;;;;;;;9.01;100.00;101131.63;5074496;28;20036;-70
2022/12/25 10:38:38;;;;;;;10.63;4.47;;;;;;;9.03;100.00;101131.63;5074496;28;20378;-71
2022/12/25 10:41:38;;;;;;;9.35;4.65;;;;;;;9.05;100.00;101134.34;5074445;28;20028;-70
2022/12/25 10:44:19;;;;;;;9.32;4.47;;;;;;;9.05;100.00;101134.34;4992847;28;20034;-70
2022/12/25 10:46:51;;;;;;;8.98;4.50;;;;;;;9.04;100.00;101128.19;5065479;28;20036;-70
2022/12/25 10:49:20;;;;;;;9.15;4.28;;;;;;;9.05;100.00;101135.22;5074430;28;20052;-70
2022/12/25 10:51:45;;;;;;;9.27;4.10;;;;;;;9.04;100.00;101117.63;5074101;28;20021;-71
2022/12/25 10:54:26;;;;;;;6.97;4.15;;;;;;;9.07;100.00;101114.16;5074016;28;20052;-70
2022/12/25 10:56:58;;;;;;;9.88;4.50;;;;;;;9.06;100.00;101086.91;5074255;28;20410;-70
2022/12/25 10:59:28;;;;;;;8.88;4.50;;;;;;;9.08;100.00;101079.00;5074101;28;20077;-71
2022/12/25 11:01:55;;;;;;;8.18;4.40;;;;;;;9.08;100.00;101073.75;5074157;28;20155;-72
2022/12/25 11:04:25;;;;;;;8.52;4.32;;;;;;;9.09;100.00;101075.53;5073880;28;20037;-71
2022/12/25 11:07:00;;;;;;;8.85;4.20;;;;;;;9.06;100.00;101073.72;5055874;28;20154;-71
2022/12/25 11:09:26;;;;;;;6.60;4.10;;;;;;;9.09;100.00;101080.81;5073839;28;20025;-71
2022/12/25 11:11:51;;;;;;;8.60;4.25;;;;;;;9.08;100.00;101093.13;5073772;28;20051;-70
2022/12/25 11:14:20;;;;;;;7.45;4.05;;;;;;;9.07;100.00;101088.69;5073719;28;20020;-70
2022/12/25 11:16:45;;;;;;;9.43;4.30;;;;;;;9.08;100.00;101086.94;5055560;28;20028;-70
2022/12/25 11:19:31;;;;;;;11.57;4.18;;;;;;;9.04;100.00;101070.19;5073721;28;20118;-71
2022/12/25 11:21:59;;;;;;;9.00;4.43;;;;;;;9.04;100.00;101057.00;5073507;28;20420;-70
2022/12/25 11:24:27;;;;;;;9.57;4.40;;;;;;;9.08;100.00;101061.47;5073551;28;20029;-70
2022/12/25 11:26:59;;;;;;;6.97;4.25;;;;;;;9.11;100.00;101061.53;5055576;28;20047;-71
2022/12/25 11:29:24;;;;;;;8.47;4.60;;;;;;;9.09;100.00;101051.81;5073664;28;20033;-71
2022/12/25 11:31:51;;;;;;;7.65;4.47;;;;;;;9.10;100.00;101035.13;5073563;28;20020;-71
2022/12/25 11:34:41;;;;;;;9.57;4.75;;;;;;;9.10;100.00;101028.13;5073330;28;20386;-71
2022/12/25 11:37:14;;;;;;;8.10;4.30;;;;;;;9.08;100.00;101032.50;5073552;28;20070;-71
2022/12/25 11:39:41;;;;;;;9.00;4.55;;;;;;;9.03;100.00;101026.22;5073253;28;20071;-71
2022/12/25 11:42:11;;;;;;;9.75;4.45;;;;;;;9.02;100.00;101025.31;5073475;28;20024;-71
2022/12/25 11:45:01;;;;;;;10.35;4.72;;;;;;;9.04;100.00;101017.47;5073072;28;20033;-71
2022/12/25 11:47:42;;;;;;;8.82;5.32;;;;;;;9.06;100.00;101018.38;5073192;28;20028;-71
2022/12/25 11:50:29;;;;;;;8.55;4.80;;;;;;;9.07;100.00;101024.53;5073066;28;20469;-72
2022/12/25 11:52:58;;;;;;;8.70;5.00;;;;;;;9.07;100.00;101020.13;5073072;28;20029;-71
2022/12/25 11:55:39;;;;;;;7.97;5.03;;;;;;;9.05;100.00;101020.97;5073074;28;20119;-72
2022/12/25 11:58:28;;;;;;;8.77;4.82;;;;;;;9.02;100.00;101009.50;5073009;28;20179;-70
2022/12/25 12:00:56;;;;;;;6.88;4.80;;;;;;;9.01;100.00;100993.69;5072930;28;20024;-74
2022/12/25 12:03:36;;;;;;;10.30;5.53;;;;;;;9.02;100.00;100980.50;5055032;28;20020;-76
2022/12/25 12:06:04;;;;;;;9.50;5.05;;;;;;;8.99;100.00;100977.84;5072978;28;20409;-75
2022/12/25 12:08:31;;;;;;;8.57;5.25;;;;;;;9.05;100.00;100992.88;5054707;28;20422;-72
2022/12/25 12:11:14;;;;;;;7.95;5.32;;;;;;;9.04;100.00;100996.38;5071618;28;20492;-73
2022/12/25 12:14:12;;;;;;;11.07;5.22;;;;;;;9.01;100.00;100986.66;5072709;28;20044;-72
2022/12/25 12:16:37;;;;;;;9.75;5.97;;;;;;;9.04;100.00;100999.00;5071928;28;20145;-74
2022/12/25 12:19:26;;;;;;;11.57;5.90;;;;;;;9.05;100.00;100997.25;5072279;28;20506;-74
2022/12/25 12:21:55;;;;;;;13.88;5.90;;;;;;;9.04;100.00;100991.09;5071680;28;20071;-76
2022/12/25 12:24:23;;;;;;;12.07;5.47;;;;;;;9.03;100.00;100992.81;5071414;28;20024;-74
2022/12/25 12:27:01;;;;;;;8.70;5.95;;;;;;;9.04;100.00;100991.09;5072711;28;20029;-75
2022/12/25 12:29:42;;;;;;;10.02;6.07;;;;;;;9.07;100.00;100993.78;5071133;28;20031;-76
2022/12/25 12:32:43;;;;;;;8.95;5.90;;;;;;;9.08;100.00;100982.41;5072719;28;20028;-75
2022/12/25 12:35:39;;;;;;;8.32;6.03;;;;;;;9.11;100.00;100978.91;5071279;28;20033;-75
2022/12/25 12:38:25;;;;;;;10.35;6.18;;;;;;;9.13;100.00;100964.03;5072649;28;20016;-74
2022/12/25 12:40:59;;;;;;;11.43;6.30;;;;;;;9.15;100.00;100955.28;5072719;28;20474;-71
2022/12/25 12:43:30;;;;;;;9.05;6.18;;;;;;;9.15;100.00;100952.63;5072387;28;20020;-72
2022/12/25 12:46:04;;;;;;;10.40;7.07;;;;;;;9.16;100.00;100961.44;5072770;28;20020;-73
2022/12/25 12:48:37;;;;;;;9.15;6.13;;;;;;;9.16;100.00;100954.41;5072392;28;20039;-72
2022/12/25 12:51:06;;;;;;;9.32;6.63;;;;;;;9.16;100.00;100961.44;5072604;28;20104;-72
2022/12/25 12:53:33;;;;;;;8.80;6.60;;;;;;;9.18;100.00;100952.69;5070915;28;20044;-72
2022/12/25 12:56:14;;;;;;;9.93;6.93;;;;;;;9.21;100.00;100952.75;5072379;28;20462;-72
2022/12/25 12:58:49;;;;;;;11.15;6.97;;;;;;;9.22;100.00;100954.53;5072616;28;20029;-73
2022/12/25 13:01:27;;;;;;;10.75;6.90;;;;;;;9.24;100.00;100951.91;5072545;28;20462;-71
2022/12/25 13:04:20;;;;;;;11.15;6.88;;;;;;;9.25;100.00;100954.59;5072408;28;20054;-71
2022/12/25 13:07:14;;;;;;;9.88;6.60;;;;;;;9.26;100.00;100950.22;5072321;28;20074;-72
2022/12/25 13:09:58;;;;;;;11.15;6.93;;;;;;;9.26;100.00;100943.19;5072667;28;20024;-72
2022/12/25 13:12:24;;;;;;;18.25;7.78;;;;;;;9.25;100.00;100944.06;5072275;28;20025;-73
2022/12/25 13:14:49;;;;;;;10.23;7.00;;;;;;;9.21;100.00;100926.41;5072017;28;20020;-76
2022/12/25 13:17:19;;;;;;;9.70;7.20;;;;;;;9.20;100.00;100924.59;5072320;28;20024;-75
2022/12/25 13:19:45;;;;;;;11.25;7.38;;;;;;;9.23;100.00;100914.13;5071966;28;20566;-75